sensor_id;sensor_type;location;lat;lon;timestamp;P1;durP1;ratioP1;P2;durP2;ratioP2
64936;SDS011;51452;47.698;19.050;2023-04-24T00:01:12;5.43;;;4.15;;
64936;SDS011;51452;47.698;19.050;2023-04-24T00:03:38;8.38;;;4.05;;
64936;SDS011;51452;47.698;19.050;2023-04-24T00:06:04;6.07;;;4.32;;
64936;SDS011;51452;47.698;19.050;2023-04-24T00:08:31;8.45;;;4.32;;
64936;SDS011;51452;47.698;19.050;2023-04-24T00:10:57;8.80;;;4.35;;
64936;SDS011;51452;47.698;19.050;2023-04-24T00:13:22;6.75;;;4.15;;
64936;SDS011;51452;47.698;19.050;2023-04-24T00:15:48;7.10;;;4.45;;
64936;SDS011;51452;47.698;19.050;2023-04-24T00:18:13;7.60;;;4.03;;
64936;SDS011;51452;47.698;19.050;2023-04-24T00:20:39;6.90;;;3.92;;
64936;SDS011;51452;47.698;19.050;2023-04-24T00:23:04;6.70;;;4.35;;
64936;SDS011;51452;47.698;19.050;2023-04-24T00:25:30;7.78;;;4.65;;
64936;SDS011;51452;47.698;19.050;2023-04-24T00:27:55;7.03;;;4.30;;
64936;SDS011;51452;47.698;19.050;2023-04-24T00:30:20;9.75;;;4.57;;
64936;SDS011;51452;47.698;19.050;2023-04-24T00:32:46;8.18;;;4.50;;
64936;SDS011;51452;47.698;19.050;2023-04-24T00:35:11;9.68;;;5.13;;
64936;SDS011;51452;47.698;19.050;2023-04-24T00:37:37;9.32;;;4.50;;
64936;SDS011;51452;47.698;19.050;2023-04-24T00:40:02;6.85;;;4.18;;
64936;SDS011;51452;47.698;19.050;2023-04-24T00:42:28;8.95;;;4.85;;
64936;SDS011;51452;47.698;19.050;2023-04-24T00:44:54;6.90;;;4.00;;
64936;SDS011;51452;47.698;19.050;2023-04-24T00:47:19;9.65;;;4.53;;
64936;SDS011;51452;47.698;19.050;2023-04-24T00:49:46;6.13;;;4.45;;
64936;SDS011;51452;47.698;19.050;2023-04-24T00:52:12;8.52;;;4.22;;
64936;SDS011;51452;47.698;19.050;2023-04-24T00:54:43;6.20;;;4.20;;
64936;SDS011;51452;47.698;19.050;2023-04-24T00:57:09;10.05;;;4.80;;
64936;SDS011;51452;47.698;19.050;2023-04-24T00:59:35;9.85;;;4.25;;
64936;SDS011;51452;47.698;19.050;2023-04-24T01:02:01;6.88;;;4.75;;
64936;SDS011;51452;47.698;19.050;2023-04-24T01:04:27;9.57;;;4.35;;
64936;SDS011;51452;47.698;19.050;2023-04-24T01:06:52;12.43;;;5.03;;
64936;SDS011;51452;47.698;19.050;2023-04-24T01:09:21;7.32;;;4.15;;
64936;SDS011;51452;47.698;19.050;2023-04-24T01:11:48;7.20;;;4.35;;
64936;SDS011;51452;47.698;19.050;2023-04-24T01:14:14;9.00;;;4.53;;
64936;SDS011;51452;47.698;19.050;2023-04-24T01:16:40;6.50;;;4.32;;
64936;SDS011;51452;47.698;19.050;2023-04-24T01:19:06;8.70;;;4.45;;
64936;SDS011;51452;47.698;19.050;2023-04-24T01:21:33;7.88;;;4.40;;
64936;SDS011;51452;47.698;19.050;2023-04-24T01:24:01;7.57;;;4.55;;
64936;SDS011;51452;47.698;19.050;2023-04-24T01:26:27;12.38;;;4.70;;
64936;SDS011;51452;47.698;19.050;2023-04-24T01:28:53;8.52;;;4.68;;
64936;SDS011;51452;47.698;19.050;2023-04-24T01:31:18;6.75;;;4.20;;
64936;SDS011;51452;47.698;19.050;2023-04-24T01:33:44;6.88;;;4.70;;
64936;SDS011;51452;47.698;19.050;2023-04-24T01:36:10;10.38;;;5.00;;
64936;SDS011;51452;47.698;19.050;2023-04-24T01:38:36;9.48;;;4.85;;
64936;SDS011;51452;47.698;19.050;2023-04-24T01:41:02;6.20;;;4.18;;
64936;SDS011;51452;47.698;19.050;2023-04-24T01:43:28;10.75;;;4.75;;
64936;SDS011;51452;47.698;19.050;2023-04-24T01:45:54;6.88;;;4.85;;
64936;SDS011;51452;47.698;19.050;2023-04-24T01:48:19;8.68;;;4.65;;
64936;SDS011;51452;47.698;19.050;2023-04-24T01:50:45;7.45;;;4.65;;
64936;SDS011;51452;47.698;19.050;2023-04-24T01:53:10;8.05;;;4.47;;
64936;SDS011;51452;47.698;19.050;2023-04-24T01:55:36;9.50;;;4.35;;
64936;SDS011;51452;47.698;19.050;2023-04-24T01:58:01;8.02;;;4.40;;
64936;SDS011;51452;47.698;19.050;2023-04-24T02:00:27;8.73;;;4.88;;
64936;SDS011;51452;47.698;19.050;2023-04-24T02:02:52;8.48;;;4.32;;
64936;SDS011;51452;47.698;19.050;2023-04-24T02:05:18;7.28;;;4.53;;
64936;SDS011;51452;47.698;19.050;2023-04-24T02:07:43;8.18;;;4.47;;
64936;SDS011;51452;47.698;19.050;2023-04-24T02:10:09;7.20;;;4.47;;
64936;SDS011;51452;47.698;19.050;2023-04-24T02:12:35;8.00;;;4.80;;
64936;SDS011;51452;47.698;19.050;2023-04-24T02:15:00;8.95;;;4.55;;
64936;SDS011;51452;47.698;19.050;2023-04-24T02:17:25;13.30;;;4.90;;
64936;SDS011;51452;47.698;19.050;2023-04-24T02:19:51;7.35;;;4.90;;
64936;SDS011;51452;47.698;19.050;2023-04-24T02:22:16;7.88;;;5.03;;
64936;SDS011;51452;47.698;19.050;2023-04-24T02:24:42;7.90;;;5.05;;
64936;SDS011;51452;47.698;19.050;2023-04-24T02:27:07;7.50;;;5.00;;
64936;SDS011;51452;47.698;19.050;2023-04-24T02:29:33;10.68;;;5.38;;
64936;SDS011;51452;47.698;19.050;2023-04-24T02:31:58;9.13;;;5.30;;
64936;SDS011;51452;47.698;19.050;2023-04-24T02:34:23;14.52;;;5.60;;
64936;SDS011;51452;47.698;19.050;2023-04-24T02:36:49;11.65;;;5.65;;
64936;SDS011;51452;47.698;19.050;2023-04-24T02:39:15;9.98;;;5.90;;
64936;SDS011;51452;47.698;19.050;2023-04-24T02:41:41;10.25;;;5.72;;
64936;SDS011;51452;47.698;19.050;2023-04-24T02:44:07;9.32;;;6.10;;
64936;SDS011;51452;47.698;19.050;2023-04-24T02:46:32;11.93;;;6.07;;
64936;SDS011;51452;47.698;19.050;2023-04-24T02:48:58;7.63;;;5.72;;
64936;SDS011;51452;47.698;19.050;2023-04-24T02:51:24;18.45;;;6.05;;
64936;SDS011;51452;47.698;19.050;2023-04-24T02:53:50;8.43;;;5.78;;
64936;SDS011;51452;47.698;19.050;2023-04-24T02:56:15;8.93;;;5.72;;
64936;SDS011;51452;47.698;19.050;2023-04-24T02:58:40;8.55;;;6.28;;
64936;SDS011;51452;47.698;19.050;2023-04-24T03:01:07;10.43;;;5.85;;
64936;SDS011;51452;47.698;19.050;2023-04-24T03:03:32;11.35;;;6.07;;
64936;SDS011;51452;47.698;19.050;2023-04-24T03:05:58;10.90;;;6.20;;
64936;SDS011;51452;47.698;19.050;2023-04-24T03:08:24;9.82;;;6.13;;
64936;SDS011;51452;47.698;19.050;2023-04-24T03:10:49;9.38;;;5.00;;
64936;SDS011;51452;47.698;19.050;2023-04-24T03:13:15;9.48;;;6.30;;
64936;SDS011;51452;47.698;19.050;2023-04-24T03:15:41;7.75;;;6.32;;
64936;SDS011;51452;47.698;19.050;2023-04-24T03:18:07;15.75;;;6.85;;
64936;SDS011;51452;47.698;19.050;2023-04-24T03:20:32;11.88;;;7.03;;
64936;SDS011;51452;47.698;19.050;2023-04-24T03:22:57;13.70;;;6.47;;
64936;SDS011;51452;47.698;19.050;2023-04-24T03:25:23;9.85;;;5.90;;
64936;SDS011;51452;47.698;19.050;2023-04-24T03:27:48;10.57;;;6.45;;
64936;SDS011;51452;47.698;19.050;2023-04-24T03:30:13;11.50;;;6.00;;
64936;SDS011;51452;47.698;19.050;2023-04-24T03:32:39;8.93;;;6.55;;
64936;SDS011;51452;47.698;19.050;2023-04-24T03:35:05;12.45;;;6.40;;
64936;SDS011;51452;47.698;19.050;2023-04-24T03:37:32;7.95;;;6.45;;
64936;SDS011;51452;47.698;19.050;2023-04-24T03:39:57;12.27;;;5.95;;
64936;SDS011;51452;47.698;19.050;2023-04-24T03:42:23;9.18;;;6.47;;
64936;SDS011;51452;47.698;19.050;2023-04-24T03:44:48;12.18;;;6.90;;
64936;SDS011;51452;47.698;19.050;2023-04-24T03:47:13;8.18;;;6.32;;
64936;SDS011;51452;47.698;19.050;2023-04-24T03:49:39;12.10;;;6.03;;
64936;SDS011;51452;47.698;19.050;2023-04-24T03:52:04;13.18;;;6.40;;
64936;SDS011;51452;47.698;19.050;2023-04-24T03:54:30;7.80;;;5.47;;
64936;SDS011;51452;47.698;19.050;2023-04-24T03:56:55;9.48;;;6.28;;
64936;SDS011;51452;47.698;19.050;2023-04-24T03:59:20;8.88;;;5.90;;
64936;SDS011;51452;47.698;19.050;2023-04-24T04:01:46;9.32;;;6.05;;
64936;SDS011;51452;47.698;19.050;2023-04-24T04:04:11;9.52;;;5.95;;
64936;SDS011;51452;47.698;19.050;2023-04-24T04:06:37;12.45;;;5.60;;
64936;SDS011;51452;47.698;19.050;2023-04-24T04:09:02;10.88;;;6.45;;
64936;SDS011;51452;47.698;19.050;2023-04-24T04:11:28;9.05;;;5.88;;
64936;SDS011;51452;47.698;19.050;2023-04-24T04:13:54;13.68;;;6.30;;
64936;SDS011;51452;47.698;19.050;2023-04-24T04:16:19;9.80;;;6.35;;
64936;SDS011;51452;47.698;19.050;2023-04-24T04:18:45;11.48;;;5.85;;
64936;SDS011;51452;47.698;19.050;2023-04-24T04:21:10;10.65;;;6.35;;
64936;SDS011;51452;47.698;19.050;2023-04-24T04:23:36;12.18;;;5.80;;
64936;SDS011;51452;47.698;19.050;2023-04-24T04:26:02;8.18;;;5.10;;
64936;SDS011;51452;47.698;19.050;2023-04-24T04:28:28;8.23;;;5.45;;
64936;SDS011;51452;47.698;19.050;2023-04-24T04:30:55;8.70;;;6.00;;
64936;SDS011;51452;47.698;19.050;2023-04-24T04:33:22;9.40;;;5.85;;
64936;SDS011;51452;47.698;19.050;2023-04-24T04:35:48;11.90;;;6.38;;
64936;SDS011;51452;47.698;19.050;2023-04-24T04:38:14;8.23;;;5.70;;
64936;SDS011;51452;47.698;19.050;2023-04-24T04:40:41;7.95;;;5.68;;
64936;SDS011;51452;47.698;19.050;2023-04-24T04:43:07;7.80;;;5.20;;
64936;SDS011;51452;47.698;19.050;2023-04-24T04:45:33;6.85;;;4.90;;
64936;SDS011;51452;47.698;19.050;2023-04-24T04:47:59;8.77;;;5.30;;
64936;SDS011;51452;47.698;19.050;2023-04-24T04:50:28;8.02;;;5.00;;
64936;SDS011;51452;47.698;19.050;2023-04-24T04:52:54;7.50;;;4.43;;
64936;SDS011;51452;47.698;19.050;2023-04-24T04:55:19;7.32;;;5.32;;
64936;SDS011;51452;47.698;19.050;2023-04-24T04:57:45;7.90;;;5.75;;
64936;SDS011;51452;47.698;19.050;2023-04-24T05:00:11;8.52;;;5.45;;
64936;SDS011;51452;47.698;19.050;2023-04-24T05:02:37;9.57;;;6.47;;
64936;SDS011;51452;47.698;19.050;2023-04-24T05:05:04;11.38;;;6.15;;
64936;SDS011;51452;47.698;19.050;2023-04-24T05:07:31;8.93;;;5.75;;
64936;SDS011;51452;47.698;19.050;2023-04-24T05:09:56;10.07;;;5.57;;
64936;SDS011;51452;47.698;19.050;2023-04-24T05:12:22;8.50;;;5.82;;
64936;SDS011;51452;47.698;19.050;2023-04-24T05:14:47;10.93;;;5.80;;
64936;SDS011;51452;47.698;19.050;2023-04-24T05:17:13;8.55;;;5.60;;
64936;SDS011;51452;47.698;19.050;2023-04-24T05:19:38;6.60;;;5.15;;
64936;SDS011;51452;47.698;19.050;2023-04-24T05:22:04;8.73;;;5.22;;
64936;SDS011;51452;47.698;19.050;2023-04-24T05:24:31;7.60;;;5.15;;
64936;SDS011;51452;47.698;19.050;2023-04-24T05:26:57;8.82;;;5.28;;
64936;SDS011;51452;47.698;19.050;2023-04-24T05:29:23;8.98;;;4.90;;
64936;SDS011;51452;47.698;19.050;2023-04-24T05:31:49;9.48;;;5.70;;
64936;SDS011;51452;47.698;19.050;2023-04-24T05:34:14;10.50;;;5.65;;
64936;SDS011;51452;47.698;19.050;2023-04-24T05:36:41;10.38;;;5.72;;
64936;SDS011;51452;47.698;19.050;2023-04-24T05:39:07;8.82;;;6.07;;
64936;SDS011;51452;47.698;19.050;2023-04-24T05:41:33;9.77;;;4.97;;
64936;SDS011;51452;47.698;19.050;2023-04-24T05:43:59;8.70;;;5.53;;
64936;SDS011;51452;47.698;19.050;2023-04-24T05:46:24;9.15;;;5.45;;
64936;SDS011;51452;47.698;19.050;2023-04-24T05:48:50;11.98;;;6.00;;
64936;SDS011;51452;47.698;19.050;2023-04-24T05:51:15;8.40;;;5.90;;
64936;SDS011;51452;47.698;19.050;2023-04-24T05:53:40;7.88;;;5.78;;
64936;SDS011;51452;47.698;19.050;2023-04-24T05:56:06;10.73;;;6.20;;
64936;SDS011;51452;47.698;19.050;2023-04-24T05:58:31;10.90;;;6.00;;
64936;SDS011;51452;47.698;19.050;2023-04-24T06:00:56;12.32;;;6.07;;
64936;SDS011;51452;47.698;19.050;2023-04-24T06:03:23;9.25;;;6.00;;
64936;SDS011;51452;47.698;19.050;2023-04-24T06:05:49;10.40;;;6.68;;
64936;SDS011;51452;47.698;19.050;2023-04-24T06:08:16;8.95;;;6.05;;
64936;SDS011;51452;47.698;19.050;2023-04-24T06:10:41;10.15;;;6.07;;
64936;SDS011;51452;47.698;19.050;2023-04-24T06:13:07;10.48;;;6.05;;
64936;SDS011;51452;47.698;19.050;2023-04-24T06:15:32;10.32;;;5.53;;
64936;SDS011;51452;47.698;19.050;2023-04-24T06:17:58;8.60;;;5.72;;
64936;SDS011;51452;47.698;19.050;2023-04-24T06:20:23;8.75;;;6.13;;
64936;SDS011;51452;47.698;19.050;2023-04-24T06:22:49;10.77;;;6.00;;
64936;SDS011;51452;47.698;19.050;2023-04-24T06:25:14;11.15;;;5.88;;
64936;SDS011;51452;47.698;19.050;2023-04-24T06:27:40;10.48;;;6.53;;
64936;SDS011;51452;47.698;19.050;2023-04-24T06:30:05;8.15;;;5.72;;
64936;SDS011;51452;47.698;19.050;2023-04-24T06:32:32;12.63;;;6.95;;
64936;SDS011;51452;47.698;19.050;2023-04-24T06:34:57;16.00;;;7.03;;
64936;SDS011;51452;47.698;19.050;2023-04-24T06:37:22;10.80;;;6.93;;
64936;SDS011;51452;47.698;19.050;2023-04-24T06:39:48;13.35;;;6.22;;
64936;SDS011;51452;47.698;19.050;2023-04-24T06:42:13;11.90;;;7.18;;
64936;SDS011;51452;47.698;19.050;2023-04-24T06:44:39;12.80;;;6.93;;
64936;SDS011;51452;47.698;19.050;2023-04-24T06:47:08;10.55;;;6.65;;
64936;SDS011;51452;47.698;19.050;2023-04-24T06:49:35;14.60;;;7.13;;
64936;SDS011;51452;47.698;19.050;2023-04-24T06:52:00;9.40;;;6.47;;
64936;SDS011;51452;47.698;19.050;2023-04-24T06:54:26;11.43;;;6.60;;
64936;SDS011;51452;47.698;19.050;2023-04-24T06:56:51;10.57;;;6.75;;
64936;SDS011;51452;47.698;19.050;2023-04-24T06:59:17;14.23;;;6.65;;
64936;SDS011;51452;47.698;19.050;2023-04-24T07:01:42;9.00;;;6.72;;
64936;SDS011;51452;47.698;19.050;2023-04-24T07:04:08;12.48;;;6.78;;
64936;SDS011;51452;47.698;19.050;2023-04-24T07:06:33;10.52;;;7.40;;
64936;SDS011;51452;47.698;19.050;2023-04-24T07:09:00;11.77;;;7.45;;
64936;SDS011;51452;47.698;19.050;2023-04-24T07:11:26;10.15;;;7.15;;
64936;SDS011;51452;47.698;19.050;2023-04-24T07:13:54;13.40;;;7.60;;
64936;SDS011;51452;47.698;19.050;2023-04-24T07:16:20;9.93;;;7.22;;
64936;SDS011;51452;47.698;19.050;2023-04-24T07:18:46;10.13;;;7.47;;
64936;SDS011;51452;47.698;19.050;2023-04-24T07:21:11;10.63;;;7.05;;
64936;SDS011;51452;47.698;19.050;2023-04-24T07:23:36;13.57;;;7.55;;
64936;SDS011;51452;47.698;19.050;2023-04-24T07:26:02;12.52;;;7.25;;
64936;SDS011;51452;47.698;19.050;2023-04-24T07:28:27;10.73;;;6.97;;
64936;SDS011;51452;47.698;19.050;2023-04-24T07:30:56;12.13;;;7.47;;
64936;SDS011;51452;47.698;19.050;2023-04-24T07:33:25;10.13;;;7.50;;
64936;SDS011;51452;47.698;19.050;2023-04-24T07:35:53;13.13;;;6.90;;
64936;SDS011;51452;47.698;19.050;2023-04-24T07:38:18;11.85;;;7.20;;
64936;SDS011;51452;47.698;19.050;2023-04-24T07:40:47;12.25;;;7.55;;
64936;SDS011;51452;47.698;19.050;2023-04-24T07:43:13;9.50;;;7.05;;
64936;SDS011;51452;47.698;19.050;2023-04-24T07:45:39;10.95;;;6.85;;
64936;SDS011;51452;47.698;19.050;2023-04-24T07:48:05;8.90;;;6.85;;
64936;SDS011;51452;47.698;19.050;2023-04-24T07:50:30;13.77;;;7.30;;
64936;SDS011;51452;47.698;19.050;2023-04-24T07:52:56;10.63;;;6.70;;
64936;SDS011;51452;47.698;19.050;2023-04-24T07:55:22;13.20;;;6.72;;
64936;SDS011;51452;47.698;19.050;2023-04-24T07:57:48;9.27;;;6.45;;
64936;SDS011;51452;47.698;19.050;2023-04-24T08:00:13;13.43;;;6.53;;
64936;SDS011;51452;47.698;19.050;2023-04-24T08:02:39;10.35;;;6.70;;
64936;SDS011;51452;47.698;19.050;2023-04-24T08:05:05;10.25;;;6.53;;
64936;SDS011;51452;47.698;19.050;2023-04-24T08:07:31;10.55;;;7.03;;
64936;SDS011;51452;47.698;19.050;2023-04-24T08:09:56;14.13;;;7.63;;
64936;SDS011;51452;47.698;19.050;2023-04-24T08:12:22;8.82;;;6.97;;
64936;SDS011;51452;47.698;19.050;2023-04-24T08:14:47;11.45;;;6.70;;
64936;SDS011;51452;47.698;19.050;2023-04-24T08:17:13;10.75;;;6.80;;
64936;SDS011;51452;47.698;19.050;2023-04-24T08:19:39;12.10;;;6.80;;
64936;SDS011;51452;47.698;19.050;2023-04-24T08:22:12;12.85;;;6.78;;
64936;SDS011;51452;47.698;19.050;2023-04-24T08:24:37;14.10;;;8.27;;
64936;SDS011;51452;47.698;19.050;2023-04-24T08:27:03;12.65;;;7.50;;
64936;SDS011;51452;47.698;19.050;2023-04-24T08:29:28;13.00;;;7.03;;
64936;SDS011;51452;47.698;19.050;2023-04-24T08:31:54;11.77;;;7.18;;
64936;SDS011;51452;47.698;19.050;2023-04-24T08:34:20;12.10;;;7.28;;
64936;SDS011;51452;47.698;19.050;2023-04-24T08:36:46;10.30;;;7.38;;
64936;SDS011;51452;47.698;19.050;2023-04-24T08:39:11;12.15;;;7.90;;
64936;SDS011;51452;47.698;19.050;2023-04-24T08:41:37;12.00;;;7.57;;
64936;SDS011;51452;47.698;19.050;2023-04-24T08:44:03;14.65;;;7.70;;
64936;SDS011;51452;47.698;19.050;2023-04-24T08:46:29;11.68;;;7.97;;
64936;SDS011;51452;47.698;19.050;2023-04-24T08:48:55;11.63;;;7.82;;
64936;SDS011;51452;47.698;19.050;2023-04-24T08:51:21;9.65;;;7.82;;
64936;SDS011;51452;47.698;19.050;2023-04-24T08:53:48;12.98;;;7.88;;
64936;SDS011;51452;47.698;19.050;2023-04-24T08:56:16;10.10;;;7.63;;
64936;SDS011;51452;47.698;19.050;2023-04-24T08:58:42;9.98;;;7.60;;
64936;SDS011;51452;47.698;19.050;2023-04-24T09:01:08;11.98;;;7.60;;
64936;SDS011;51452;47.698;19.050;2023-04-24T09:03:34;10.75;;;7.82;;
64936;SDS011;51452;47.698;19.050;2023-04-24T09:05:59;10.13;;;8.27;;
64936;SDS011;51452;47.698;19.050;2023-04-24T09:08:26;12.77;;;8.23;;
64936;SDS011;51452;47.698;19.050;2023-04-24T09:10:53;15.88;;;7.65;;
64936;SDS011;51452;47.698;19.050;2023-04-24T09:13:19;11.73;;;7.47;;
64936;SDS011;51452;47.698;19.050;2023-04-24T09:15:45;12.85;;;7.15;;
64936;SDS011;51452;47.698;19.050;2023-04-24T09:18:11;11.73;;;6.57;;
64936;SDS011;51452;47.698;19.050;2023-04-24T09:20:56;8.85;;;6.50;;
64936;SDS011;51452;47.698;19.050;2023-04-24T09:23:22;9.90;;;5.85;;
64936;SDS011;51452;47.698;19.050;2023-04-24T09:25:48;8.38;;;6.22;;
64936;SDS011;51452;47.698;19.050;2023-04-24T09:28:22;8.45;;;6.53;;
64936;SDS011;51452;47.698;19.050;2023-04-24T09:31:01;12.57;;;6.75;;
64936;SDS011;51452;47.698;19.050;2023-04-24T09:33:30;9.95;;;6.85;;
64936;SDS011;51452;47.698;19.050;2023-04-24T09:35:56;10.77;;;7.43;;
64936;SDS011;51452;47.698;19.050;2023-04-24T09:38:43;9.70;;;6.72;;
64936;SDS011;51452;47.698;19.050;2023-04-24T09:41:08;12.00;;;7.22;;
64936;SDS011;51452;47.698;19.050;2023-04-24T09:43:38;15.07;;;7.40;;
64936;SDS011;51452;47.698;19.050;2023-04-24T09:46:05;8.10;;;6.30;;
64936;SDS011;51452;47.698;19.050;2023-04-24T09:48:37;9.95;;;7.20;;
64936;SDS011;51452;47.698;19.050;2023-04-24T09:51:04;13.38;;;7.93;;
64936;SDS011;51452;47.698;19.050;2023-04-24T09:53:36;11.77;;;7.45;;
64936;SDS011;51452;47.698;19.050;2023-04-24T09:56:02;12.05;;;7.60;;
64936;SDS011;51452;47.698;19.050;2023-04-24T09:58:31;10.43;;;7.35;;
64936;SDS011;51452;47.698;19.050;2023-04-24T10:00:57;9.70;;;6.70;;
64936;SDS011;51452;47.698;19.050;2023-04-24T10:03:30;10.48;;;7.28;;
64936;SDS011;51452;47.698;19.050;2023-04-24T10:06:02;10.80;;;7.00;;
64936;SDS011;51452;47.698;19.050;2023-04-24T10:08:34;8.50;;;6.43;;
64936;SDS011;51452;47.698;19.050;2023-04-24T10:11:00;9.23;;;6.57;;
64936;SDS011;51452;47.698;19.050;2023-04-24T10:13:26;14.10;;;6.65;;
64936;SDS011;51452;47.698;19.050;2023-04-24T10:15:52;8.40;;;5.65;;
64936;SDS011;51452;47.698;19.050;2023-04-24T10:18:19;10.90;;;4.82;;
64936;SDS011;51452;47.698;19.050;2023-04-24T10:20:46;9.98;;;4.95;;
64936;SDS011;51452;47.698;19.050;2023-04-24T10:23:12;6.05;;;4.68;;
64936;SDS011;51452;47.698;19.050;2023-04-24T10:25:37;6.32;;;4.18;;
64936;SDS011;51452;47.698;19.050;2023-04-24T10:28:03;10.90;;;4.57;;
64936;SDS011;51452;47.698;19.050;2023-04-24T10:30:30;12.45;;;4.90;;
64936;SDS011;51452;47.698;19.050;2023-04-24T10:33:00;8.77;;;5.10;;
64936;SDS011;51452;47.698;19.050;2023-04-24T10:35:32;7.57;;;5.40;;
64936;SDS011;51452;47.698;19.050;2023-04-24T10:38:03;9.43;;;5.85;;
64936;SDS011;51452;47.698;19.050;2023-04-24T10:40:32;12.63;;;5.40;;
64936;SDS011;51452;47.698;19.050;2023-04-24T10:43:02;11.18;;;5.70;;
64936;SDS011;51452;47.698;19.050;2023-04-24T10:45:31;7.38;;;5.30;;
64936;SDS011;51452;47.698;19.050;2023-04-24T10:47:57;8.45;;;5.70;;
64936;SDS011;51452;47.698;19.050;2023-04-24T10:50:25;7.13;;;5.32;;
64936;SDS011;51452;47.698;19.050;2023-04-24T10:52:52;10.65;;;6.38;;
64936;SDS011;51452;47.698;19.050;2023-04-24T10:58:08;8.48;;;6.45;;
64936;SDS011;51452;47.698;19.050;2023-04-24T11:00:36;8.82;;;6.10;;
64936;SDS011;51452;47.698;19.050;2023-04-24T11:03:04;9.20;;;6.35;;
64936;SDS011;51452;47.698;19.050;2023-04-24T11:06:07;10.10;;;5.45;;
64936;SDS011;51452;47.698;19.050;2023-04-24T11:11:08;8.90;;;5.82;;
64936;SDS011;51452;47.698;19.050;2023-04-24T11:19:02;13.20;;;7.30;;
64936;SDS011;51452;47.698;19.050;2023-04-24T11:29:41;13.23;;;7.72;;
64936;SDS011;51452;47.698;19.050;2023-04-24T11:32:14;12.10;;;7.55;;
64936;SDS011;51452;47.698;19.050;2023-04-24T11:34:44;12.80;;;6.97;;
64936;SDS011;51452;47.698;19.050;2023-04-24T11:37:11;9.48;;;6.90;;
64936;SDS011;51452;47.698;19.050;2023-04-24T11:39:37;13.73;;;7.65;;
64936;SDS011;51452;47.698;19.050;2023-04-24T11:42:03;10.75;;;8.05;;
64936;SDS011;51452;47.698;19.050;2023-04-24T11:44:30;11.00;;;8.52;;
64936;SDS011;51452;47.698;19.050;2023-04-24T11:46:56;12.57;;;7.72;;
64936;SDS011;51452;47.698;19.050;2023-04-24T11:49:22;16.23;;;7.97;;
64936;SDS011;51452;47.698;19.050;2023-04-24T11:51:47;11.80;;;7.85;;
64936;SDS011;51452;47.698;19.050;2023-04-24T11:54:13;10.02;;;7.40;;
64936;SDS011;51452;47.698;19.050;2023-04-24T11:56:38;9.80;;;7.32;;
64936;SDS011;51452;47.698;19.050;2023-04-24T11:59:04;11.63;;;7.82;;
64936;SDS011;51452;47.698;19.050;2023-04-24T12:01:29;10.48;;;7.05;;
64936;SDS011;51452;47.698;19.050;2023-04-24T12:03:59;10.20;;;6.68;;
64936;SDS011;51452;47.698;19.050;2023-04-24T12:06:25;11.48;;;7.13;;
64936;SDS011;51452;47.698;19.050;2023-04-24T12:08:52;12.70;;;7.75;;
64936;SDS011;51452;47.698;19.050;2023-04-24T12:11:17;10.60;;;7.88;;
64936;SDS011;51452;47.698;19.050;2023-04-24T12:13:43;14.05;;;7.75;;
64936;SDS011;51452;47.698;19.050;2023-04-24T12:16:09;12.35;;;7.07;;
64936;SDS011;51452;47.698;19.050;2023-04-24T12:18:34;10.75;;;8.00;;
64936;SDS011;51452;47.698;19.050;2023-04-24T12:21:16;14.07;;;8.00;;
64936;SDS011;51452;47.698;19.050;2023-04-24T12:23:45;10.43;;;7.72;;
64936;SDS011;51452;47.698;19.050;2023-04-24T12:26:12;13.50;;;8.43;;
64936;SDS011;51452;47.698;19.050;2023-04-24T12:28:41;15.02;;;8.70;;
64936;SDS011;51452;47.698;19.050;2023-04-24T12:31:06;11.35;;;8.55;;
64936;SDS011;51452;47.698;19.050;2023-04-24T12:33:33;13.55;;;9.18;;
64936;SDS011;51452;47.698;19.050;2023-04-24T12:35:59;14.88;;;8.73;;
64936;SDS011;51452;47.698;19.050;2023-04-24T12:38:25;12.18;;;9.00;;
64936;SDS011;51452;47.698;19.050;2023-04-24T12:41:05;12.10;;;9.35;;
64936;SDS011;51452;47.698;19.050;2023-04-24T12:43:31;12.35;;;8.88;;
64936;SDS011;51452;47.698;19.050;2023-04-24T12:45:57;13.40;;;9.23;;
64936;SDS011;51452;47.698;19.050;2023-04-24T12:48:22;12.98;;;8.98;;
64936;SDS011;51452;47.698;19.050;2023-04-24T12:50:48;10.50;;;7.80;;
64936;SDS011;51452;47.698;19.050;2023-04-24T12:53:14;14.90;;;8.68;;
64936;SDS011;51452;47.698;19.050;2023-04-24T12:55:40;14.65;;;7.72;;
64936;SDS011;51452;47.698;19.050;2023-04-24T12:58:06;8.70;;;6.60;;
64936;SDS011;51452;47.698;19.050;2023-04-24T13:00:31;7.65;;;5.60;;
64936;SDS011;51452;47.698;19.050;2023-04-24T13:02:57;7.68;;;5.65;;
64936;SDS011;51452;47.698;19.050;2023-04-24T13:05:23;9.32;;;6.03;;
64936;SDS011;51452;47.698;19.050;2023-04-24T13:07:48;7.63;;;5.85;;
64936;SDS011;51452;47.698;19.050;2023-04-24T13:10:14;8.45;;;5.78;;
64936;SDS011;51452;47.698;19.050;2023-04-24T13:12:39;9.10;;;5.80;;
64936;SDS011;51452;47.698;19.050;2023-04-24T13:15:05;8.43;;;5.72;;
64936;SDS011;51452;47.698;19.050;2023-04-24T13:17:32;9.65;;;6.88;;
64936;SDS011;51452;47.698;19.050;2023-04-24T13:19:58;8.98;;;5.55;;
64936;SDS011;51452;47.698;19.050;2023-04-24T13:22:23;12.40;;;5.10;;
64936;SDS011;51452;47.698;19.050;2023-04-24T13:24:49;8.60;;;5.50;;
64936;SDS011;51452;47.698;19.050;2023-04-24T13:27:15;10.38;;;5.25;;
64936;SDS011;51452;47.698;19.050;2023-04-24T13:29:41;7.65;;;5.22;;
64936;SDS011;51452;47.698;19.050;2023-04-24T13:32:07;8.80;;;5.38;;
64936;SDS011;51452;47.698;19.050;2023-04-24T13:34:33;9.70;;;4.10;;
64936;SDS011;51452;47.698;19.050;2023-04-24T13:37:00;7.20;;;4.40;;
64936;SDS011;51452;47.698;19.050;2023-04-24T13:39:26;5.85;;;4.15;;
64936;SDS011;51452;47.698;19.050;2023-04-24T13:41:52;6.60;;;4.30;;
64936;SDS011;51452;47.698;19.050;2023-04-24T13:44:18;6.55;;;4.68;;
64936;SDS011;51452;47.698;19.050;2023-04-24T13:46:45;6.00;;;4.10;;
64936;SDS011;51452;47.698;19.050;2023-04-24T13:49:13;4.50;;;3.15;;
64936;SDS011;51452;47.698;19.050;2023-04-24T13:51:39;6.47;;;3.20;;
64936;SDS011;51452;47.698;19.050;2023-04-24T13:54:05;4.90;;;3.17;;
64936;SDS011;51452;47.698;19.050;2023-04-24T13:56:31;4.53;;;2.97;;
64936;SDS011;51452;47.698;19.050;2023-04-24T13:58:56;4.25;;;3.25;;
64936;SDS011;51452;47.698;19.050;2023-04-24T14:01:21;5.43;;;3.42;;
64936;SDS011;51452;47.698;19.050;2023-04-24T14:03:51;4.57;;;3.42;;
64936;SDS011;51452;47.698;19.050;2023-04-24T14:06:20;7.35;;;3.50;;
64936;SDS011;51452;47.698;19.050;2023-04-24T14:08:47;5.68;;;3.10;;
64936;SDS011;51452;47.698;19.050;2023-04-24T14:11:13;11.75;;;8.23;;
64936;SDS011;51452;47.698;19.050;2023-04-24T14:13:40;14.38;;;7.47;;
64936;SDS011;51452;47.698;19.050;2023-04-24T14:16:06;10.25;;;7.30;;
64936;SDS011;51452;47.698;19.050;2023-04-24T14:18:31;15.50;;;9.18;;
64936;SDS011;51452;47.698;19.050;2023-04-24T14:20:57;11.00;;;8.20;;
64936;SDS011;51452;47.698;19.050;2023-04-24T14:23:23;9.65;;;7.03;;
64936;SDS011;51452;47.698;19.050;2023-04-24T14:25:48;8.18;;;5.35;;
64936;SDS011;51452;47.698;19.050;2023-04-24T14:28:17;8.50;;;5.43;;
64936;SDS011;51452;47.698;19.050;2023-04-24T14:30:44;7.53;;;4.97;;
64936;SDS011;51452;47.698;19.050;2023-04-24T14:33:09;5.57;;;4.60;;
64936;SDS011;51452;47.698;19.050;2023-04-24T14:35:35;6.40;;;4.53;;
64936;SDS011;51452;47.698;19.050;2023-04-24T14:38:01;5.97;;;4.65;;
64936;SDS011;51452;47.698;19.050;2023-04-24T14:40:26;6.70;;;4.45;;
64936;SDS011;51452;47.698;19.050;2023-04-24T14:42:52;7.70;;;5.30;;